Time;durP1;ratioP1;P1;durP2;ratioP2;P2;SDS_P1;SDS_P2;PMS_P1;PMS_P2;Temp;Humidity;BMP_temperature;BMP_pressure;BME280_temperature;BME280_humidity;BME280_pressure;Samples;Min_cycle;Max_cycle;Signal;HPM_P1;HPM_P2
2023/04/13 00:00:33;;;;;;;36.22;12.57;;;;;;;;;;2082094;28;20276;-65
2023/04/13 00:01:35;;;;;;;28.38;12.32;;;;;;;;;;2082191;28;20284;-65
2023/04/13 00:02:40;;;;;;;34.20;12.18;;;;;;;;;;2089991;28;20275;-64
2023/04/13 00:03:44;;;;;;;34.83;13.23;;;;;;;;;;2090500;28;20634;-65
2023/04/13 00:04:53;;;;;;;28.63;12.75;;;;;;;;;;2098312;28;20291;-65
2023/04/13 00:05:57;;;;;;;33.05;12.50;;;;;;;;;;2098786;28;20270;-65
2023/04/13 00:07:02;;;;;;;30.52;12.18;;;;;;;;;;2098038;28;20804;-64
2023/04/13 00:08:04;;;;;;;29.08;12.02;;;;;;;;;;2097375;28;20282;-66
2023/04/13 00:09:08;;;;;;;27.50;12.10;;;;;;;;;;2097026;28;20278;-64
2023/04/13 00:10:09;;;;;;;29.33;12.32;;;;;;;;;;2097022;28;20658;-65
2023/04/13 00:11:19;;;;;;;27.80;11.88;;;;;;;;;;2098006;28;20273;-65
2023/04/13 00:12:26;;;;;;;29.17;12.13;;;;;;;;;;2097355;28;20286;-64
2023/04/13 00:13:29;;;;;;;35.17;12.27;;;;;;;;;;2097480;28;20282;-65
2023/04/13 00:14:33;;;;;;;25.40;12.48;;;;;;;;;;2098042;28;20797;-65
2023/04/13 00:15:35;;;;;;;31.15;13.60;;;;;;;;;;2090227;28;20264;-64
2023/04/13 00:16:37;;;;;;;32.95;12.90;;;;;;;;;;2097960;28;20271;-65
2023/04/13 00:17:39;;;;;;;29.88;12.35;;;;;;;;;;2097392;28;20274;-64
2023/04/13 00:18:41;;;;;;;33.58;13.50;;;;;;;;;;2089563;28;20278;-64
2023/04/13 00:19:49;;;;;;;35.65;12.45;;;;;;;;;;2089930;28;20279;-65
2023/04/13 00:20:50;;;;;;;29.95;12.55;;;;;;;;;;2098114;28;20286;-65
2023/04/13 00:21:56;;;;;;;28.13;12.82;;;;;;;;;;2097979;28;20294;-65
2023/04/13 00:22:57;;;;;;;28.88;13.07;;;;;;;;;;2089690;28;20255;-64
2023/04/13 00:24:00;;;;;;;26.40;12.68;;;;;;;;;;2089994;28;20275;-64
2023/04/13 00:25:06;;;;;;;28.00;12.40;;;;;;;;;;2089706;28;20278;-64
2023/04/13 00:26:07;;;;;;;25.65;12.23;;;;;;;;;;2090201;28;20259;-64
2023/04/13 00:27:09;;;;;;;28.45;11.60;;;;;;;;;;2088237;28;20634;-64
2023/04/13 00:28:11;;;;;;;28.48;13.00;;;;;;;;;;2088600;28;20279;-65
2023/04/13 00:29:15;;;;;;;26.73;12.98;;;;;;;;;;2096813;28;20279;-64
2023/04/13 00:30:19;;;;;;;29.05;12.35;;;;;;;;;;2098019;28;20275;-64
2023/04/13 00:31:20;;;;;;;27.45;12.20;;;;;;;;;;2081478;28;20268;-64
2023/04/13 00:32:21;;;;;;;33.53;12.90;;;;;;;;;;2089536;28;20719;-64
2023/04/13 00:33:24;;;;;;;27.85;12.70;;;;;;;;;;2097157;28;20266;-64
2023/04/13 00:34:26;;;;;;;27.67;12.38;;;;;;;;;;2098025;28;20306;-64
2023/04/13 00:35:30;;;;;;;26.35;12.93;;;;;;;;;;2097456;28;20266;-64
2023/04/13 00:36:33;;;;;;;31.10;12.52;;;;;;;;;;2090371;28;20267;-64
2023/04/13 00:37:34;;;;;;;27.27;12.65;;;;;;;;;;2097981;28;20278;-64
2023/04/13 00:38:37;;;;;;;27.58;12.98;;;;;;;;;;2097686;28;20278;-64
2023/04/13 00:39:42;;;;;;;31.98;12.75;;;;;;;;;;2097376;28;20772;-64
2023/04/13 00:40:43;;;;;;;27.52;12.95;;;;;;;;;;2098533;28;20350;-64
2023/04/13 00:41:45;;;;;;;28.83;12.60;;;;;;;;;;2089729;28;20276;-64
2023/04/13 00:42:48;;;;;;;24.75;12.65;;;;;;;;;;2082058;28;20268;-64
2023/04/13 00:43:52;;;;;;;27.50;12.38;;;;;;;;;;2097790;28;20271;-64
2023/04/13 00:44:55;;;;;;;29.38;12.93;;;;;;;;;;2098590;28;20274;-64
2023/04/13 00:45:56;;;;;;;24.58;12.27;;;;;;;;;;2097845;28;20277;-64
2023/04/13 00:47:04;;;;;;;30.98;12.43;;;;;;;;;;2089934;28;20021;-64
2023/04/13 00:48:12;;;;;;;27.10;12.20;;;;;;;;;;2097805;28;20255;-64
2023/04/13 00:49:14;;;;;;;25.85;12.40;;;;;;;;;;2098516;28;20028;-64
2023/04/13 00:50:22;;;;;;;26.02;13.07;;;;;;;;;;2081306;28;20279;-64
2023/04/13 00:51:25;;;;;;;29.60;12.93;;;;;;;;;;2082798;28;20283;-64
2023/04/13 00:52:30;;;;;;;23.45;12.10;;;;;;;;;;2089459;28;20666;-64
2023/04/13 00:53:34;;;;;;;26.63;12.70;;;;;;;;;;2082763;28;20289;-64
2023/04/13 00:54:35;;;;;;;28.85;12.82;;;;;;;;;;2081631;28;20288;-64
2023/04/13 00:55:38;;;;;;;26.17;12.40;;;;;;;;;;2089659;28;20272;-64
2023/04/13 00:56:42;;;;;;;28.17;12.65;;;;;;;;;;2081353;28;20279;-64
2023/04/13 00:57:44;;;;;;;29.45;13.35;;;;;;;;;;2082339;28;20283;-65
2023/04/13 00:58:46;;;;;;;29.02;12.73;;;;;;;;;;2089302;28;20275;-64
2023/04/13 00:59:53;;;;;;;27.00;12.93;;;;;;;;;;2091507;28;20282;-64
2023/04/13 01:00:56;;;;;;;30.95;13.38;;;;;;;;;;2096199;28;20325;-64
2023/04/13 01:02:00;;;;;;;27.77;13.00;;;;;;;;;;2096507;28;20270;-63
2023/04/13 01:03:02;;;;;;;28.90;12.90;;;;;;;;;;2097205;28;20261;-64
2023/04/13 01:04:04;;;;;;;26.38;12.32;;;;;;;;;;2088602;28;20264;-64
2023/04/13 01:05:06;;;;;;;25.45;12.80;;;;;;;;;;2097115;28;20278;-64
2023/04/13 01:06:27;;;;;;;27.73;12.93;;;;;;;;;;2097695;28;20263;-64
2023/04/13 01:07:40;;;;;;;27.50;12.65;;;;;;;;;;2095457;28;20630;-64
2023/04/13 01:08:46;;;;;;;25.40;12.88;;;;;;;;;;2090641;28;20272;-64
2023/04/13 01:09:54;;;;;;;31.95;13.40;;;;;;;;;;2087493;28;20275;-63
2023/04/13 01:10:57;;;;;;;27.60;12.32;;;;;;;;;;2082001;28;20648;-64
2023/04/13 01:12:24;;;;;;;28.15;13.38;;;;;;;;;;2081771;28;20790;-63
2023/04/13 01:13:29;;;;;;;27.25;12.27;;;;;;;;;;2090679;28;20290;-64
2023/04/13 01:14:36;;;;;;;28.85;13.23;;;;;;;;;;2090102;28;20769;-64
2023/04/13 01:15:41;;;;;;;28.13;12.30;;;;;;;;;;2090422;28;20646;-63
2023/04/13 01:16:49;;;;;;;26.38;12.32;;;;;;;;;;2097541;28;20270;-64
2023/04/13 01:17:57;;;;;;;33.40;13.13;;;;;;;;;;2097254;28;20267;-64
2023/04/13 01:19:04;;;;;;;27.80;12.35;;;;;;;;;;2087948;28;20739;-64
2023/04/13 01:20:12;;;;;;;27.02;12.50;;;;;;;;;;2080918;28;20271;-64
2023/04/13 01:21:24;;;;;;;26.52;12.43;;;;;;;;;;2080789;28;20767;-64
2023/04/13 01:22:30;;;;;;;24.33;11.88;;;;;;;;;;2090979;28;20274;-64
2023/04/13 01:23:43;;;;;;;26.52;13.20;;;;;;;;;;2089084;28;20029;-65
2023/04/13 01:25:00;;;;;;;28.90;12.48;;;;;;;;;;2093329;28;20655;-64
2023/04/13 01:26:07;;;;;;;27.70;12.32;;;;;;;;;;2089408;28;20291;-65
2023/04/13 01:27:21;;;;;;;24.77;11.63;;;;;;;;;;2091881;28;20299;-64
2023/04/13 01:28:26;;;;;;;30.60;12.85;;;;;;;;;;2089260;28;20275;-64
2023/04/13 01:29:29;;;;;;;27.73;12.10;;;;;;;;;;2073341;28;20663;-64
2023/04/13 01:30:31;;;;;;;28.48;12.93;;;;;;;;;;2089348;28;20267;-64
2023/04/13 01:31:36;;;;;;;27.88;13.13;;;;;;;;;;2097541;28;20274;-64
2023/04/13 01:32:39;;;;;;;28.73;12.52;;;;;;;;;;2089384;28;20287;-64
2023/04/13 01:33:41;;;;;;;25.92;12.32;;;;;;;;;;2081152;28;20284;-64
2023/04/13 01:34:45;;;;;;;27.92;12.80;;;;;;;;;;2081556;28;20291;-64
2023/04/13 01:35:54;;;;;;;28.92;13.38;;;;;;;;;;2081804;28;20829;-65
2023/04/13 01:36:56;;;;;;;30.17;13.88;;;;;;;;;;2081161;28;20284;-64
2023/04/13 01:37:57;;;;;;;27.77;12.45;;;;;;;;;;2089194;28;20278;-64
2023/04/13 01:39:04;;;;;;;25.50;12.23;;;;;;;;;;2080967;28;20272;-64
2023/04/13 01:40:11;;;;;;;25.48;12.27;;;;;;;;;;2084419;28;20276;-65
2023/04/13 01:41:30;;;;;;;23.33;12.02;;;;;;;;;;2089043;28;20045;-64
2023/04/13 01:42:31;;;;;;;27.00;12.38;;;;;;;;;;2091970;28;20338;-64
2023/04/13 01:43:35;;;;;;;23.92;11.82;;;;;;;;;;2097597;28;20274;-64
2023/04/13 01:44:41;;;;;;;33.38;12.85;;;;;;;;;;2089235;28;20686;-64
2023/04/13 01:45:55;;;;;;;25.13;12.45;;;;;;;;;;2082198;28;20279;-64
2023/04/13 01:47:15;;;;;;;23.70;11.95;;;;;;;;;;2091091;28;20264;-64
2023/04/13 01:48:31;;;;;;;25.77;12.52;;;;;;;;;;2097385;28;20266;-64
2023/04/13 01:49:40;;;;;;;25.13;12.02;;;;;;;;;;2091581;28;20267;-64
2023/04/13 01:51:04;;;;;;;31.55;13.15;;;;;;;;;;2092451;28;20610;-64
2023/04/13 01:52:23;;;;;;;29.27;12.70;;;;;;;;;;2090341;28;20264;-64
2023/04/13 01:53:28;;;;;;;26.17;12.85;;;;;;;;;;2088356;28;20028;-64
2023/04/13 01:54:32;;;;;;;25.02;12.55;;;;;;;;;;2087607;28;20271;-64
2023/04/13 01:55:38;;;;;;;26.98;12.68;;;;;;;;;;2081459;28;20264;-65
2023/04/13 01:56:43;;;;;;;26.98;12.30;;;;;;;;;;2081693;28;20279;-65
2023/04/13 01:57:46;;;;;;;29.80;12.20;;;;;;;;;;2081496;28;20273;-65
2023/04/13 01:58:52;;;;;;;28.33;13.32;;;;;;;;;;2080916;28;20639;-65
2023/04/13 01:59:54;;;;;;;29.02;12.90;;;;;;;;;;2081944;28;20276;-65
2023/04/13 02:00:56;;;;;;;24.13;11.70;;;;;;;;;;2088640;28;20845;-65
2023/04/13 02:01:58;;;;;;;29.02;13.13;;;;;;;;;;2097295;28;20263;-65
2023/04/13 02:03:08;;;;;;;29.70;13.32;;;;;;;;;;2089315;28;20270;-64
2023/04/13 02:04:15;;;;;;;27.02;12.50;;;;;;;;;;2090051;28;20763;-65
2023/04/13 02:05:23;;;;;;;31.75;13.18;;;;;;;;;;2088710;28;20284;-64
2023/04/13 02:06:25;;;;;;;28.52;12.88;;;;;;;;;;2082791;28;20275;-65
2023/04/13 02:07:27;;;;;;;28.40;13.35;;;;;;;;;;2079454;28;20283;-64
2023/04/13 02:08:33;;;;;;;32.15;13.10;;;;;;;;;;2097312;28;20270;-65
2023/04/13 02:09:34;;;;;;;30.13;12.43;;;;;;;;;;2089012;28;20287;-64
2023/04/13 02:10:36;;;;;;;26.98;13.10;;;;;;;;;;2080848;28;20740;-65
2023/04/13 02:11:38;;;;;;;23.98;12.50;;;;;;;;;;2089262;28;20278;-64
2023/04/13 02:12:42;;;;;;;27.45;12.73;;;;;;;;;;2088972;28;20275;-65
2023/04/13 02:13:43;;;;;;;26.98;12.57;;;;;;;;;;2080683;28;20272;-65
2023/04/13 02:14:48;;;;;;;25.95;12.57;;;;;;;;;;2081389;28;20280;-65
2023/04/13 02:15:51;;;;;;;30.23;13.07;;;;;;;;;;2080885;28;20272;-65
2023/04/13 02:16:54;;;;;;;31.42;13.05;;;;;;;;;;2097229;28;20255;-64
2023/04/13 02:17:59;;;;;;;28.02;12.60;;;;;;;;;;2088675;28;20276;-64
2023/04/13 02:19:00;;;;;;;28.35;12.85;;;;;;;;;;2081068;28;20279;-64
2023/04/13 02:20:09;;;;;;;28.83;13.70;;;;;;;;;;2080896;28;20343;-64
2023/04/13 02:21:12;;;;;;;24.83;12.88;;;;;;;;;;2090275;28;20280;-64
2023/04/13 02:22:14;;;;;;;32.20;14.02;;;;;;;;;;2088720;28;20385;-64
2023/04/13 02:23:16;;;;;;;27.95;12.90;;;;;;;;;;2072658;28;20776;-64
2023/04/13 02:24:25;;;;;;;29.38;13.13;;;;;;;;;;2080268;28;20260;-64
2023/04/13 02:25:28;;;;;;;29.27;12.80;;;;;;;;;;2080732;28;20276;-64
2023/04/13 02:26:32;;;;;;;27.75;12.50;;;;;;;;;;2080575;28;20279;-64
2023/04/13 02:27:34;;;;;;;25.90;12.80;;;;;;;;;;2088911;28;20857;-64
2023/04/13 02:28:36;;;;;;;27.58;12.88;;;;;;;;;;2089265;28;20287;-64
2023/04/13 02:29:38;;;;;;;28.40;12.65;;;;;;;;;;2080706;28;20279;-64
2023/04/13 02:30:41;;;;;;;28.27;12.30;;;;;;;;;;2073159;28;20291;-64
2023/04/13 02:31:45;;;;;;;27.88;12.60;;;;;;;;;;2080739;28;20291;-64
2023/04/13 02:32:55;;;;;;;29.77;12.67;;;;;;;;;;2083087;28;20288;-64
2023/04/13 02:34:03;;;;;;;28.23;12.80;;;;;;;;;;2082148;28;20275;-64
2023/04/13 02:35:10;;;;;;;25.75;12.95;;;;;;;;;;2089688;28;20287;-64
2023/04/13 02:36:16;;;;;;;31.73;12.52;;;;;;;;;;2089664;28;20650;-64
2023/04/13 02:37:28;;;;;;;33.53;13.70;;;;;;;;;;2091221;28;20263;-64
2023/04/13 02:38:36;;;;;;;37.28;13.73;;;;;;;;;;2096829;28;20267;-64
2023/04/13 02:39:43;;;;;;;37.92;13.57;;;;;;;;;;2082540;28;20288;-64
2023/04/13 02:40:45;;;;;;;32.53;13.30;;;;;;;;;;2080934;28;20068;-64
2023/04/13 02:41:47;;;;;;;33.22;14.40;;;;;;;;;;2088222;28;20287;-64
2023/04/13 02:42:56;;;;;;;31.85;13.70;;;;;;;;;;2080282;28;20276;-64
2023/04/13 02:44:00;;;;;;;31.15;13.55;;;;;;;;;;2072467;28;20672;-64
2023/04/13 02:45:06;;;;;;;35.70;14.43;;;;;;;;;;2072538;28;20291;-64
2023/04/13 02:46:08;;;;;;;31.08;15.27;;;;;;;;;;2080668;28;20275;-63
2023/04/13 02:47:12;;;;;;;33.50;13.18;;;;;;;;;;2097437;28;20281;-64
2023/04/13 02:48:15;;;;;;;31.58;14.10;;;;;;;;;;2096983;28;20270;-64
2023/04/13 02:49:16;;;;;;;29.17;13.20;;;;;;;;;;2088549;28;20282;-64
2023/04/13 02:50:32;;;;;;;34.47;13.77;;;;;;;;;;2090282;28;20291;-64
2023/04/13 02:51:39;;;;;;;25.85;12.55;;;;;;;;;;2082021;28;20307;-64
2023/04/13 02:52:45;;;;;;;28.90;13.85;;;;;;;;;;2088989;28;20278;-64
2023/04/13 02:53:48;;;;;;;31.63;13.45;;;;;;;;;;2088431;28;20276;-64
2023/04/13 02:54:53;;;;;;;27.73;13.55;;;;;;;;;;2090261;28;20275;-64
2023/04/13 02:55:59;;;;;;;30.25;13.63;;;;;;;;;;2083650;28;20284;-64
2023/04/13 02:57:05;;;;;;;33.40;14.35;;;;;;;;;;2082827;28;20029;-64
2023/04/13 02:58:12;;;;;;;;;;;;;;;;;;2083912;28;20275;-64
2023/04/13 02:59:19;;;;;;;23.35;12.00;;;;;;;;;;2084146;28;19913;-64
2023/04/13 03:00:24;;;;;;;25.13;12.52;;;;;;;;;;2099274;28;20250;-64
2023/04/13 03:01:31;;;;;;;27.90;13.10;;;;;;;;;;2098692;28;20722;-64
2023/04/13 03:02:34;;;;;;;30.17;12.90;;;;;;;;;;2082391;28;20268;-64
2023/04/13 03:03:40;;;;;;;26.52;12.65;;;;;;;;;;2090648;28;20278;-64
2023/04/13 03:04:46;;;;;;;27.13;11.82;;;;;;;;;;2091411;28;20268;-63
2023/04/13 03:05:51;;;;;;;27.50;11.93;;;;;;;;;;2090171;28;20746;-64
2023/04/13 03:07:03;;;;;;;26.75;12.43;;;;;;;;;;2090590;28;20271;-64
2023/04/13 03:08:10;;;;;;;25.50;12.63;;;;;;;;;;2099073;28;20056;-63
2023/04/13 03:09:19;;;;;;;24.63;12.23;;;;;;;;;;2090267;28;20294;-63
2023/04/13 03:10:26;;;;;;;;;;;;;;;;;;2076952;28;20034;-64
2023/04/13 03:11:29;;;;;;;27.25;12.52;;;;;;;;;;2082275;28;19916;-63
2023/04/13 03:12:53;;;;;;;26.80;12.50;;;;;;;;;;2084752;28;20287;-63
2023/04/13 03:13:59;;;;;;;24.10;11.52;;;;;;;;;;2086602;28;20637;-63
2023/04/13 03:15:10;;;;;;;30.75;13.13;;;;;;;;;;2089704;28;20268;-63
2023/04/13 03:16:16;;;;;;;37.50;13.55;;;;;;;;;;2089207;28;20737;-63
2023/04/13 03:17:21;;;;;;;29.85;13.35;;;;;;;;;;2090458;28;20325;-63
2023/04/13 03:18:26;;;;;;;28.73;13.45;;;;;;;;;;2098069;28;20271;-63
2023/04/13 03:19:34;;;;;;;26.77;13.10;;;;;;;;;;2090821;28;20276;-63
2023/04/13 03:20:39;;;;;;;28.73;13.52;;;;;;;;;;2090128;28;20278;-63
2023/04/13 03:21:41;;;;;;;27.55;13.45;;;;;;;;;;2081983;28;20291;-64
2023/04/13 03:22:48;;;;;;;33.42;15.38;;;;;;;;;;2082728;28;20662;-64
2023/04/13 03:23:49;;;;;;;28.63;13.82;;;;;;;;;;2082780;28;20271;-64
2023/04/13 03:24:54;;;;;;;27.45;14.68;;;;;;;;;;2082478;28;20759;-65
2023/04/13 03:26:07;;;;;;;29.27;13.43;;;;;;;;;;2091762;28;20274;-64
2023/04/13 03:27:08;;;;;;;30.95;13.77;;;;;;;;;;2082500;28;20272;-64
2023/04/13 03:28:18;;;;;;;27.70;12.88;;;;;;;;;;2090604;28;20256;-64
2023/04/13 03:29:20;;;;;;;26.70;13.43;;;;;;;;;;2090427;28;20267;-64
2023/04/13 03:30:21;;;;;;;30.15;13.20;;;;;;;;;;2081888;28;20283;-64
2023/04/13 03:31:29;;;;;;;27.45;13.25;;;;;;;;;;2091312;28;20279;-64
2023/04/13 03:32:34;;;;;;;38.80;13.23;;;;;;;;;;2088892;28;20622;-65
2023/04/13 03:33:40;;;;;;;29.33;13.55;;;;;;;;;;2088988;28;20283;-65
2023/04/13 03:34:42;;;;;;;27.50;13.18;;;;;;;;;;2082104;28;20287;-65
2023/04/13 03:35:46;;;;;;;28.35;13.13;;;;;;;;;;2080554;28;20322;-65
2023/04/13 03:36:56;;;;;;;28.48;13.70;;;;;;;;;;2068840;28;20672;-65
2023/04/13 03:37:58;;;;;;;31.48;13.45;;;;;;;;;;2081805;28;20038;-65
2023/04/13 03:39:10;;;;;;;26.20;14.02;;;;;;;;;;2083697;28;20763;-65
2023/04/13 03:40:13;;;;;;;27.15;13.10;;;;;;;;;;2081892;28;20280;-65
2023/04/13 03:41:22;;;;;;;29.98;13.07;;;;;;;;;;2084200;28;20833;-67
2023/04/13 03:42:23;;;;;;;27.20;13.75;;;;;;;;;;2098542;28;20586;-65
2023/04/13 03:43:33;;;;;;;25.23;12.70;;;;;;;;;;2089971;28;20659;-65
2023/04/13 03:44:41;;;;;;;25.50;12.18;;;;;;;;;;2077013;28;20272;-65
2023/04/13 03:45:43;;;;;;;30.13;12.93;;;;;;;;;;2081780;28;20045;-65
2023/04/13 03:46:49;;;;;;;27.98;13.63;;;;;;;;;;2098609;28;20273;-65
2023/04/13 03:48:02;;;;;;;31.10;13.48;;;;;;;;;;2089887;28;20296;-63
2023/04/13 03:49:08;;;;;;;29.35;13.57;;;;;;;;;;2084337;28;20272;-64
2023/04/13 03:50:13;;;;;;;28.35;12.60;;;;;;;;;;2090937;28;20686;-64
2023/04/13 03:51:18;;;;;;;27.17;13.35;;;;;;;;;;2090524;28;20684;-63
2023/04/13 03:52:23;;;;;;;31.55;14.25;;;;;;;;;;2090678;28;20275;-64
2023/04/13 03:53:31;;;;;;;33.55;12.85;;;;;;;;;;2091339;28;20314;-64
2023/04/13 03:54:38;;;;;;;25.27;12.95;;;;;;;;;;2081928;28;20284;-63
2023/04/13 03:55:39;;;;;;;30.20;12.40;;;;;;;;;;2090978;28;20715;-64
2023/04/13 03:56:44;;;;;;;32.22;14.23;;;;;;;;;;2090158;28;20294;-64
2023/04/13 03:57:46;;;;;;;29.45;12.68;;;;;;;;;;2080995;28;20287;-63
2023/04/13 03:58:53;;;;;;;27.38;13.13;;;;;;;;;;2082755;28;20284;-64
2023/04/13 04:00:02;;;;;;;28.65;12.85;;;;;;;;;;2083156;28;20775;-64
2023/04/13 04:01:22;;;;;;;24.52;11.70;;;;;;;;;;2090024;28;20271;-64
2023/04/13 04:02:26;;;;;;;25.30;12.32;;;;;;;;;;2084440;28;20779;-64
2023/04/13 04:03:27;;;;;;;24.17;11.57;;;;;;;;;;2090644;28;20267;-64
2023/04/13 04:04:33;;;;;;;21.60;11.52;;;;;;;;;;2090080;28;20283;-64
2023/04/13 04:05:39;;;;;;;22.92;11.52;;;;;;;;;;2090126;28;20290;-64
2023/04/13 04:06:43;;;;;;;24.23;11.93;;;;;;;;;;2089465;28;20678;-63
2023/04/13 04:07:50;;;;;;;19.45;10.80;;;;;;;;;;2080538;28;20276;-64
2023/04/13 04:08:52;;;;;;;31.20;11.63;;;;;;;;;;2079512;28;20033;-64
2023/04/13 04:10:06;;;;;;;20.90;10.75;;;;;;;;;;2080918;28;20295;-64
2023/04/13 04:11:13;;;;;;;20.50;10.10;;;;;;;;;;2080555;28;20291;-64
2023/04/13 04:12:15;;;;;;;22.70;10.75;;;;;;;;;;2081481;28;20292;-64
2023/04/13 04:13:18;;;;;;;21.67;10.70;;;;;;;;;;2089099;28;20287;-65
2023/04/13 04:22:12;;;;;;;23.02;10.77;;;;;;;;;;2120722;27;20108;-64
2023/04/13 04:23:16;;;;;;;21.27;10.18;;;;;;;;;;2128532;27;20958;-64
2023/04/13 04:24:26;;;;;;;19.65;10.02;;;;;;;;;;2102156;28;20287;-65
2023/04/13 04:25:33;;;;;;;22.35;9.93;;;;;;;;;;2096645;28;20271;-64
2023/04/13 04:26:36;;;;;;;19.30;9.55;;;;;;;;;;2103254;28;20301;-64
2023/04/13 04:27:45;;;;;;;23.30;10.85;;;;;;;;;;2090014;28;20267;-64
2023/04/13 04:28:49;;;;;;;20.33;10.48;;;;;;;;;;1205575;28;10000192;-63
2023/04/13 04:29:58;;;;;;;18.77;9.40;;;;;;;;;;2103345;28;20057;-64
2023/04/13 04:31:10;;;;;;;20.40;9.80;;;;;;;;;;2095699;28;20669;-64
2023/04/13 04:32:14;;;;;;;19.02;9.45;;;;;;;;;;2094137;28;20804;-65
2023/04/13 04:33:24;;;;;;;20.73;9.38;;;;;;;;;;2095117;28;20263;-64
2023/04/13 04:34:27;;;;;;;23.23;9.27;;;;;;;;;;2094887;28;20271;-63
2023/04/13 04:35:32;;;;;;;17.73;8.90;;;;;;;;;;2094277;28;20040;-63
2023/04/13 04:36:35;;;;;;;18.35;9.27;;;;;;;;;;2102660;28;20275;-63
2023/04/13 04:37:39;;;;;;;20.75;9.38;;;;;;;;;;2102209;28;20305;-63
2023/04/13 04:38:46;;;;;;;18.42;9.48;;;;;;;;;;2076791;28;20280;-63
2023/04/13 04:39:50;;;;;;;18.23;9.13;;;;;;;;;;2084674;28;20267;-64
2023/04/13 04:40:56;;;;;;;18.55;9.85;;;;;;;;;;2084746;28;21032;-63
2023/04/13 04:42:06;;;;;;;20.42;10.32;;;;;;;;;;2093879;28;20361;-64
2023/04/13 04:43:13;;;;;;;21.40;10.52;;;;;;;;;;2085662;28;20416;-64
2023/04/13 04:44:23;;;;;;;23.00;10.85;;;;;;;;;;2095137;28;20333;-65
2023/04/13 04:45:28;;;;;;;21.33;10.20;;;;;;;;;;2094107;28;20273;-64
2023/04/13 04:46:36;;;;;;;19.75;10.23;;;;;;;;;;2093544;28;20271;-65
2023/04/13 04:47:42;;;;;;;21.95;10.00;;;;;;;;;;2079309;28;20373;-65
2023/04/13 04:49:02;;;;;;;22.65;10.48;;;;;;;;;;2091073;28;20290;-64
2023/04/13 04:50:06;;;;;;;19.58;10.75;;;;;;;;;;2086345;28;20067;-65
2023/04/13 04:51:12;;;;;;;19.30;10.40;;;;;;;;;;2087617;28;20276;-64
2023/04/13 04:52:14;;;;;;;22.60;11.32;;;;;;;;;;2085839;28;20306;-67
2023/04/13 04:53:16;;;;;;;20.45;10.77;;;;;;;;;;2077480;28;20284;-64
2023/04/13 04:54:19;;;;;;;29.27;11.23;;;;;;;;;;2093991;28;20309;-64
2023/04/13 04:55:24;;;;;;;22.65;11.20;;;;;;;;;;2095173;28;20267;-64
2023/04/13 04:56:25;;;;;;;28.70;10.93;;;;;;;;;;2086361;28;20371;-63
2023/04/13 04:57:28;;;;;;;24.65;10.85;;;;;;;;;;2086890;28;20283;-63
2023/04/13 04:58:30;;;;;;;23.95;11.43;;;;;;;;;;2094032;28;20275;-64
2023/04/13 04:59:32;;;;;;;21.88;10.40;;;;;;;;;;2086219;28;20283;-63
2023/04/13 05:00:37;;;;;;;21.73;11.25;;;;;;;;;;2078478;28;20280;-64
2023/04/13 05:01:47;;;;;;;20.85;10.45;;;;;;;;;;2088656;28;20302;-64
2023/04/13 05:02:49;;;;;;;22.23;11.18;;;;;;;;;;2095485;28;20311;-63
2023/04/13 05:03:51;;;;;;;24.45;11.20;;;;;;;;;;2086891;28;20279;-64
2023/04/13 05:05:05;;;;;;;23.60;10.55;;;;;;;;;;2088378;28;20276;-64
2023/04/13 05:06:08;;;;;;;22.50;10.95;;;;;;;;;;2078993;28;20264;-64
2023/04/13 05:07:16;;;;;;;21.95;10.27;;;;;;;;;;2087470;28;20272;-63
2023/04/13 05:08:18;;;;;;;25.45;10.68;;;;;;;;;;2095785;28;20279;-64
2023/04/13 05:10:18;;;;;;;22.08;10.30;;;;;;;;;;2113457;27;20315;-62
2023/04/13 05:11:28;;;;;;;31.58;10.48;;;;;;;;;;2102933;28;20360;-64
2023/04/13 05:12:32;;;;;;;20.40;9.25;;;;;;;;;;2087755;28;20124;-63
2023/04/13 05:13:37;;;;;;;26.48;10.75;;;;;;;;;;2094714;28;20263;-63
2023/04/13 05:15:00;;;;;;;22.30;10.38;;;;;;;;;;2099273;28;20603;-64
2023/04/13 05:16:05;;;;;;;20.20;9.98;;;;;;;;;;2101143;28;20833;-63
2023/04/13 05:17:07;;;;;;;21.08;10.43;;;;;;;;;;2108523;28;20277;-63
2023/04/13 05:18:14;;;;;;;20.52;10.25;;;;;;;;;;2085287;28;20276;-64
2023/04/13 05:19:15;;;;;;;19.05;9.65;;;;;;;;;;2087100;28;20280;-63
2023/04/13 05:20:26;;;;;;;21.73;10.00;;;;;;;;;;2100931;28;20278;-64
2023/04/13 05:21:35;;;;;;;18.27;9.60;;;;;;;;;;2107576;28;21003;-64
2023/04/13 05:22:40;;;;;;;20.25;9.98;;;;;;;;;;2098708;28;20270;-64
2023/04/13 05:23:43;;;;;;;20.83;10.38;;;;;;;;;;2086259;28;20268;-65
2023/04/13 05:24:45;;;;;;;22.25;10.27;;;;;;;;;;2091690;28;20267;-64
2023/04/13 05:25:52;;;;;;;25.52;10.20;;;;;;;;;;2101914;28;20020;-64
2023/04/13 05:26:57;;;;;;;20.50;10.05;;;;;;;;;;2109968;28;20270;-64
2023/04/13 05:28:00;;;;;;;21.75;10.38;;;;;;;;;;2094529;28;20278;-64
2023/04/13 05:29:03;;;;;;;18.67;10.00;;;;;;;;;;2086039;28;20275;-64
2023/04/13 05:30:11;;;;;;;25.95;10.25;;;;;;;;;;2087644;28;20515;-63
2023/04/13 05:31:15;;;;;;;18.35;10.00;;;;;;;;;;2089649;28;20335;-64
2023/04/13 05:32:21;;;;;;;24.65;10.02;;;;;;;;;;2104147;28;20649;-64
2023/04/13 05:33:25;;;;;;;22.75;10.75;;;;;;;;;;2098360;28;20271;-65
2023/04/13 05:34:31;;;;;;;24.92;10.35;;;;;;;;;;2087856;28;20272;-64
2023/04/13 05:35:47;;;;;;;27.85;10.68;;;;;;;;;;2097448;28;20389;-64
2023/04/13 05:36:54;;;;;;;23.42;10.73;;;;;;;;;;2095225;28;20279;-64
2023/04/13 05:37:59;;;;;;;24.17;11.13;;;;;;;;;;2096096;28;20279;-64
2023/04/13 05:39:09;;;;;;;22.38;10.27;;;;;;;;;;2095844;28;20282;-64
2023/04/13 05:40:13;;;;;;;23.25;10.05;;;;;;;;;;2087873;28;20279;-64
2023/04/13 05:41:17;;;;;;;28.50;10.80;;;;;;;;;;2083915;28;20287;-64
2023/04/13 05:42:19;;;;;;;26.10;10.60;;;;;;;;;;2088406;28;20287;-64
2023/04/13 05:43:21;;;;;;;22.50;10.57;;;;;;;;;;2102877;28;20709;-64
2023/04/13 05:44:29;;;;;;;21.42;10.50;;;;;;;;;;2086890;28;20279;-63
2023/04/13 05:45:31;;;;;;;25.58;11.63;;;;;;;;;;2087308;28;20268;-63
2023/04/13 05:46:40;;;;;;;22.20;11.32;;;;;;;;;;2086277;28;20280;-64
2023/04/13 05:47:44;;;;;;;22.70;10.48;;;;;;;;;;2085814;28;20299;-64
2023/04/13 05:48:48;;;;;;;22.63;10.25;;;;;;;;;;2103412;28;20293;-62
2023/04/13 05:49:53;;;;;;;26.67;10.85;;;;;;;;;;2088550;28;20288;-62
2023/04/13 05:50:57;;;;;;;27.55;11.73;;;;;;;;;;2087789;28;20271;-63
2023/04/13 05:51:59;;;;;;;24.58;11.32;;;;;;;;;;2083390;28;20400;-65
2023/04/13 05:53:11;;;;;;;21.13;11.23;;;;;;;;;;2082529;28;20046;-63
2023/04/13 05:54:28;;;;;;;25.20;11.57;;;;;;;;;;2113760;28;20688;-63
2023/04/13 05:55:31;;;;;;;24.77;11.30;;;;;;;;;;2111303;28;20278;-63
2023/04/13 05:56:36;;;;;;;23.13;10.52;;;;;;;;;;2104062;28;20269;-63
2023/04/13 05:57:41;;;;;;;23.33;11.18;;;;;;;;;;2094191;28;20464;-63
2023/04/13 05:58:49;;;;;;;24.65;11.55;;;;;;;;;;2088154;28;20272;-63
2023/04/13 05:59:58;;;;;;;29.23;12.82;;;;;;;;;;2104629;28;20281;-63
2023/04/13 06:01:03;;;;;;;25.02;11.02;;;;;;;;;;2103235;28;20278;-63
2023/04/13 06:02:09;;;;;;;24.48;10.88;;;;;;;;;;2093338;28;20263;-63
2023/04/13 06:03:14;;;;;;;20.05;10.55;;;;;;;;;;2112396;28;20277;-63
2023/04/13 06:04:21;;;;;;;21.85;10.43;;;;;;;;;;2110018;28;20285;-63
2023/04/13 06:05:27;;;;;;;32.72;11.02;;;;;;;;;;2079332;28;20281;-63
2023/04/13 06:06:31;;;;;;;23.20;10.80;;;;;;;;;;2080205;28;20281;-64
2023/04/13 06:07:35;;;;;;;27.05;11.85;;;;;;;;;;2086805;28;20268;-63
2023/04/13 06:08:42;;;;;;;26.73;11.70;;;;;;;;;;2088084;28;20276;-64
2023/04/13 06:09:46;;;;;;;24.77;12.75;;;;;;;;;;2096444;28;20049;-63
2023/04/13 06:10:48;;;;;;;24.45;12.90;;;;;;;;;;2104271;28;20475;-63
2023/04/13 06:11:53;;;;;;;32.08;13.32;;;;;;;;;;2095544;28;20286;-64
2023/04/13 06:12:55;;;;;;;32.03;14.50;;;;;;;;;;2095529;28;20041;-63
2023/04/13 06:13:58;;;;;;;26.00;11.98;;;;;;;;;;2095649;28;20358;-64
2023/04/13 06:15:05;;;;;;;25.08;12.35;;;;;;;;;;2096341;28;20742;-64
2023/04/13 06:16:10;;;;;;;24.55;11.77;;;;;;;;;;2095613;28;20271;-64
2023/04/13 06:17:16;;;;;;;44.45;21.15;;;;;;;;;;2104132;28;20266;-64
2023/04/13 06:18:18;;;;;;;26.45;13.15;;;;;;;;;;2087219;28;20276;-64
2023/04/13 06:19:19;;;;;;;28.83;14.23;;;;;;;;;;2087416;28;20029;-64
2023/04/13 06:20:22;;;;;;;30.35;13.00;;;;;;;;;;2094318;28;20435;-63
2023/04/13 06:21:28;;;;;;;30.02;14.02;;;;;;;;;;2089994;28;20271;-63
2023/04/13 06:22:32;;;;;;;28.33;13.68;;;;;;;;;;2097023;28;20263;-63
2023/04/13 06:23:36;;;;;;;27.20;12.95;;;;;;;;;;2089334;28;20279;-63
2023/04/13 06:24:46;;;;;;;30.20;14.07;;;;;;;;;;2084366;28;20056;-63
2023/04/13 06:25:48;;;;;;;29.25;14.40;;;;;;;;;;2082002;28;20033;-63
2023/04/13 06:26:54;;;;;;;27.17;13.15;;;;;;;;;;2083691;28;20299;-64
2023/04/13 06:27:57;;;;;;;31.33;14.15;;;;;;;;;;2098004;28;20282;-64
2023/04/13 06:28:58;;;;;;;29.50;13.60;;;;;;;;;;2090039;28;20805;-63
2023/04/13 06:30:01;;;;;;;32.47;14.50;;;;;;;;;;2073813;28;20041;-64
2023/04/13 06:31:07;;;;;;;33.75;14.18;;;;;;;;;;2074646;28;20030;-64